sensor_id;sensor_type;location;lat;lon;timestamp;pressure;altitude;pressure_sealevel;temperature;humidity
34658;BME280;20865;43.312;27.152;2023-05-13T00:00:52;101061.82;;;16.00;39.34
34658;BME280;20865;43.312;27.152;2023-05-13T00:03:19;101067.09;;;16.03;39.40
34658;BME280;20865;43.312;27.152;2023-05-13T00:05:46;101068.04;;;16.02;39.38
34658;BME280;20865;43.312;27.152;2023-05-13T00:08:13;101071.25;;;16.00;39.38
34658;BME280;20865;43.312;27.152;2023-05-13T00:10:40;101065.06;;;15.98;39.06
34658;BME280;20865;43.312;27.152;2023-05-13T00:13:07;101071.05;;;15.94;38.82
34658;BME280;20865;43.312;27.152;2023-05-13T00:15:33;101077.19;;;15.86;38.69
34658;BME280;20865;43.312;27.152;2023-05-13T00:18:00;101085.42;;;15.71;38.54
34658;BME280;20865;43.312;27.152;2023-05-13T00:20:27;101083.87;;;15.64;38.72
34658;BME280;20865;43.312;27.152;2023-05-13T00:22:54;101085.59;;;15.55;38.82
34658;BME280;20865;43.312;27.152;2023-05-13T00:25:21;101084.83;;;15.52;39.26
34658;BME280;20865;43.312;27.152;2023-05-13T00:27:48;101086.58;;;15.53;39.59
34658;BME280;20865;43.312;27.152;2023-05-13T00:30:14;101093.02;;;15.48;39.42
34658;BME280;20865;43.312;27.152;2023-05-13T00:32:41;101093.06;;;15.47;39.01
34658;BME280;20865;43.312;27.152;2023-05-13T00:35:08;101085.64;;;15.42;39.12
34658;BME280;20865;43.312;27.152;2023-05-13T00:37:35;101087.09;;;15.39;39.38
34658;BME280;20865;43.312;27.152;2023-05-13T00:40:02;101082.52;;;15.41;39.50
34658;BME280;20865;43.312;27.152;2023-05-13T00:42:29;101083.69;;;15.34;39.68
34658;BME280;20865;43.312;27.152;2023-05-13T00:44:56;101081.83;;;15.36;39.88
34658;BME280;20865;43.312;27.152;2023-05-13T00:47:23;101083.57;;;15.37;39.55
34658;BME280;20865;43.312;27.152;2023-05-13T00:49:50;101087.43;;;15.30;39.02
34658;BME280;20865;43.312;27.152;2023-05-13T00:52:17;101088.41;;;15.27;38.95
34658;BME280;20865;43.312;27.152;2023-05-13T00:54:44;101090.88;;;15.21;38.90
34658;BME280;20865;43.312;27.152;2023-05-13T00:57:11;101083.03;;;15.15;38.88
34658;BME280;20865;43.312;27.152;2023-05-13T00:59:37;101087.39;;;15.06;39.11
34658;BME280;20865;43.312;27.152;2023-05-13T01:02:15;101085.23;;;15.04;39.12
34658;BME280;20865;43.312;27.152;2023-05-13T01:10:12;101089.72;;;15.17;38.53
34658;BME280;20865;43.312;27.152;2023-05-13T01:12:43;101087.72;;;15.10;38.87
34658;BME280;20865;43.312;27.152;2023-05-13T01:15:14;101092.00;;;15.03;39.12
34658;BME280;20865;43.312;27.152;2023-05-13T01:17:43;101088.88;;;15.03;39.31
34658;BME280;20865;43.312;27.152;2023-05-13T01:20:09;101095.70;;;15.00;39.58
34658;BME280;20865;43.312;27.152;2023-05-13T01:22:36;101104.28;;;14.98;39.77
34658;BME280;20865;43.312;27.152;2023-05-13T01:25:03;101111.66;;;14.93;39.93
34658;BME280;20865;43.312;27.152;2023-05-13T01:27:30;101101.70;;;14.95;39.74
34658;BME280;20865;43.312;27.152;2023-05-13T01:29:57;101102.94;;;14.98;39.51
34658;BME280;20865;43.312;27.152;2023-05-13T01:32:24;101108.97;;;14.93;39.41
34658;BME280;20865;43.312;27.152;2023-05-13T01:34:51;101112.06;;;14.94;39.20
34658;BME280;20865;43.312;27.152;2023-05-13T01:37:19;101104.94;;;14.93;39.11
34658;BME280;20865;43.312;27.152;2023-05-13T01:39:46;101106.20;;;14.94;39.06
34658;BME280;20865;43.312;27.152;2023-05-13T01:42:13;101102.28;;;14.91;39.05
34658;BME280;20865;43.312;27.152;2023-05-13T01:44:40;101106.28;;;14.80;39.33
34658;BME280;20865;43.312;27.152;2023-05-13T01:47:07;101104.87;;;14.81;39.37
34658;BME280;20865;43.312;27.152;2023-05-13T01:49:34;101111.13;;;14.82;39.24
34658;BME280;20865;43.312;27.152;2023-05-13T01:52:01;101111.67;;;14.80;38.91
34658;BME280;20865;43.312;27.152;2023-05-13T01:54:29;101116.78;;;14.74;38.83
34658;BME280;20865;43.312;27.152;2023-05-13T01:56:55;101111.61;;;14.68;38.93
34658;BME280;20865;43.312;27.152;2023-05-13T01:59:22;101105.89;;;14.65;38.93
34658;BME280;20865;43.312;27.152;2023-05-13T02:01:49;101106.93;;;14.61;38.90
34658;BME280;20865;43.312;27.152;2023-05-13T02:04:16;101106.56;;;14.59;38.76
34658;BME280;20865;43.312;27.152;2023-05-13T02:06:42;101104.14;;;14.51;38.57
34658;BME280;20865;43.312;27.152;2023-05-13T02:09:09;101113.64;;;14.46;38.69
34658;BME280;20865;43.312;27.152;2023-05-13T02:11:36;101115.05;;;14.45;39.02
34658;BME280;20865;43.312;27.152;2023-05-13T02:14:03;101109.47;;;14.38;39.22
34658;BME280;20865;43.312;27.152;2023-05-13T02:16:30;101108.93;;;14.40;39.25
34658;BME280;20865;43.312;27.152;2023-05-13T02:18:57;101112.25;;;14.35;39.27
34658;BME280;20865;43.312;27.152;2023-05-13T02:21:24;101114.94;;;14.35;39.22
34658;BME280;20865;43.312;27.152;2023-05-13T02:23:50;101120.48;;;14.30;38.92
34658;BME280;20865;43.312;27.152;2023-05-13T02:26:17;101124.95;;;14.16;39.12
34658;BME280;20865;43.312;27.152;2023-05-13T02:28:44;101124.54;;;14.00;38.99
34658;BME280;20865;43.312;27.152;2023-05-13T02:31:11;101122.95;;;13.95;38.96
34658;BME280;20865;43.312;27.152;2023-05-13T02:33:38;101136.03;;;13.91;38.88
34658;BME280;20865;43.312;27.152;2023-05-13T02:36:05;101127.25;;;13.86;38.90
34658;BME280;20865;43.312;27.152;2023-05-13T02:38:32;101125.99;;;13.82;39.07
34658;BME280;20865;43.312;27.152;2023-05-13T02:40:59;101128.86;;;13.76;39.41
34658;BME280;20865;43.312;27.152;2023-05-13T02:43:26;101139.59;;;13.76;39.71
34658;BME280;20865;43.312;27.152;2023-05-13T02:45:54;101143.83;;;13.70;39.87
34658;BME280;20865;43.312;27.152;2023-05-13T02:48:21;101142.11;;;13.68;40.06
34658;BME280;20865;43.312;27.152;2023-05-13T02:50:48;101143.39;;;13.69;40.17
34658;BME280;20865;43.312;27.152;2023-05-13T02:53:15;101143.45;;;13.68;39.97
34658;BME280;20865;43.312;27.152;2023-05-13T02:55:42;101137.70;;;13.65;39.90
34658;BME280;20865;43.312;27.152;2023-05-13T02:58:09;101139.45;;;13.66;39.54
34658;BME280;20865;43.312;27.152;2023-05-13T03:00:35;101144.91;;;13.63;39.34
34658;BME280;20865;43.312;27.152;2023-05-13T03:03:02;101146.45;;;13.57;39.43
34658;BME280;20865;43.312;27.152;2023-05-13T03:05:29;101148.90;;;13.50;39.66
34658;BME280;20865;43.312;27.152;2023-05-13T03:07:56;101150.19;;;13.51;39.73
34658;BME280;20865;43.312;27.152;2023-05-13T03:10:23;101144.81;;;13.51;39.26
34658;BME280;20865;43.312;27.152;2023-05-13T03:12:50;101144.81;;;13.51;39.58
34658;BME280;20865;43.312;27.152;2023-05-13T03:15:16;101149.31;;;13.51;39.62
34658;BME280;20865;43.312;27.152;2023-05-13T03:17:43;101147.50;;;13.51;39.71
34658;BME280;20865;43.312;27.152;2023-05-13T03:20:10;101157.36;;;13.51;39.83
34658;BME280;20865;43.312;27.152;2023-05-13T03:22:37;101149.31;;;13.51;39.85
34658;BME280;20865;43.312;27.152;2023-05-13T03:25:04;101144.11;;;13.45;39.99
34658;BME280;20865;43.312;27.152;2023-05-13T03:27:32;101148.90;;;13.50;40.34
34658;BME280;20865;43.312;27.152;2023-05-13T03:29:58;101148.38;;;13.52;40.62
34658;BME280;20865;43.312;27.152;2023-05-13T03:32:25;101154.12;;;13.54;40.85
34658;BME280;20865;43.312;27.152;2023-05-13T03:34:54;101155.77;;;13.60;40.93
34658;BME280;20865;43.312;27.152;2023-05-13T03:37:20;101161.02;;;13.63;40.75
34658;BME280;20865;43.312;27.152;2023-05-13T03:39:48;101167.32;;;13.62;39.98
34658;BME280;20865;43.312;27.152;2023-05-13T03:42:14;101166.45;;;13.62;40.16
34658;BME280;20865;43.312;27.152;2023-05-13T03:44:41;101168.12;;;13.80;40.03
34658;BME280;20865;43.312;27.152;2023-05-13T03:47:08;101171.94;;;13.88;39.92
34658;BME280;20865;43.312;27.152;2023-05-13T03:49:35;101169.52;;;13.94;40.04
34658;BME280;20865;43.312;27.152;2023-05-13T03:52:02;101164.11;;;13.95;40.09
34658;BME280;20865;43.312;27.152;2023-05-13T03:54:29;101175.55;;;14.02;40.17
34658;BME280;20865;43.312;27.152;2023-05-13T03:56:56;101176.25;;;14.09;40.31
34658;BME280;20865;43.312;27.152;2023-05-13T03:59:22;101171.53;;;14.15;40.53
34658;BME280;20865;43.312;27.152;2023-05-13T04:01:49;101158.38;;;14.21;40.61
34658;BME280;20865;43.312;27.152;2023-05-13T04:04:16;101163.13;;;14.26;40.74
34658;BME280;20865;43.312;27.152;2023-05-13T04:06:43;101170.83;;;14.38;40.91
34658;BME280;20865;43.312;27.152;2023-05-13T04:09:10;101169.20;;;14.47;40.97
34658;BME280;20865;43.312;27.152;2023-05-13T04:11:36;101172.06;;;14.56;41.12
34658;BME280;20865;43.312;27.152;2023-05-13T04:14:03;101169.12;;;14.64;40.92
34658;BME280;20865;43.312;27.152;2023-05-13T04:16:30;101169.77;;;14.72;41.13
34658;BME280;20865;43.312;27.152;2023-05-13T04:18:57;101166.74;;;14.81;41.38
34658;BME280;20865;43.312;27.152;2023-05-13T04:21:24;101174.98;;;14.90;41.58
34658;BME280;20865;43.312;27.152;2023-05-13T04:23:50;101177.47;;;14.96;41.45
34658;BME280;20865;43.312;27.152;2023-05-13T04:26:17;101168.55;;;15.07;41.38
34658;BME280;20865;43.312;27.152;2023-05-13T04:28:46;101174.94;;;15.16;41.36
34658;BME280;20865;43.312;27.152;2023-05-13T04:31:13;101182.00;;;15.20;41.42
34658;BME280;20865;43.312;27.152;2023-05-13T04:33:40;101179.43;;;15.29;41.37
34658;BME280;20865;43.312;27.152;2023-05-13T04:36:06;101180.49;;;15.37;41.46
34658;BME280;20865;43.312;27.152;2023-05-13T04:38:33;101187.84;;;15.45;41.18
34658;BME280;20865;43.312;27.152;2023-05-13T04:41:00;101192.47;;;15.53;41.24
34658;BME280;20865;43.312;27.152;2023-05-13T04:43:27;101198.92;;;15.61;41.29
34658;BME280;20865;43.312;27.152;2023-05-13T04:45:54;101213.33;;;15.73;41.31
34658;BME280;20865;43.312;27.152;2023-05-13T04:48:21;101207.77;;;15.78;41.49
34658;BME280;20865;43.312;27.152;2023-05-13T04:50:49;101203.54;;;15.82;41.40
34658;BME280;20865;43.312;27.152;2023-05-13T04:53:17;101201.86;;;15.91;41.72
34658;BME280;20865;43.312;27.152;2023-05-13T04:55:45;101210.36;;;16.04;41.59
34658;BME280;20865;43.312;27.152;2023-05-13T04:58:12;101214.75;;;16.18;41.01
34658;BME280;20865;43.312;27.152;2023-05-13T05:00:39;101223.81;;;16.39;41.49
34658;BME280;20865;43.312;27.152;2023-05-13T05:03:06;101222.34;;;16.64;41.11
34658;BME280;20865;43.312;27.152;2023-05-13T05:05:33;101223.20;;;16.88;40.94
34658;BME280;20865;43.312;27.152;2023-05-13T05:08:00;101218.11;;;17.13;40.51
34658;BME280;20865;43.312;27.152;2023-05-13T05:10:27;101221.01;;;17.39;39.86
34658;BME280;20865;43.312;27.152;2023-05-13T05:12:53;101220.74;;;17.66;39.53
34658;BME280;20865;43.312;27.152;2023-05-13T05:15:20;101222.16;;;17.84;38.77
34658;BME280;20865;43.312;27.152;2023-05-13T05:17:47;101220.63;;;18.08;38.14
34658;BME280;20865;43.312;27.152;2023-05-13T05:20:14;101218.25;;;18.29;37.86
34658;BME280;20865;43.312;27.152;2023-05-13T05:22:41;101208.56;;;18.53;37.76
34658;BME280;20865;43.312;27.152;2023-05-13T05:25:08;101207.20;;;18.72;37.28
34658;BME280;20865;43.312;27.152;2023-05-13T05:27:35;101213.70;;;18.87;37.75
34658;BME280;20865;43.312;27.152;2023-05-13T05:30:02;101216.73;;;19.07;37.14
34658;BME280;20865;43.312;27.152;2023-05-13T05:32:29;101210.53;;;19.31;36.90
34658;BME280;20865;43.312;27.152;2023-05-13T05:34:56;101200.88;;;19.51;36.98
34658;BME280;20865;43.312;27.152;2023-05-13T05:37:22;101205.66;;;19.72;36.69
34658;BME280;20865;43.312;27.152;2023-05-13T05:39:49;101207.20;;;19.93;35.86
34658;BME280;20865;43.312;27.152;2023-05-13T05:42:16;101204.42;;;20.11;35.34
34658;BME280;20865;43.312;27.152;2023-05-13T05:44:43;101210.76;;;20.27;35.10
34658;BME280;20865;43.312;27.152;2023-05-13T05:47:10;101206.78;;;20.41;35.07
34658;BME280;20865;43.312;27.152;2023-05-13T05:49:37;101205.47;;;20.57;35.60
34658;BME280;20865;43.312;27.152;2023-05-13T05:52:03;101214.77;;;20.76;35.03
34658;BME280;20865;43.312;27.152;2023-05-13T05:54:30;101216.67;;;20.90;34.09
34658;BME280;20865;43.312;27.152;2023-05-13T05:56:57;101212.17;;;21.05;33.78
34658;BME280;20865;43.312;27.152;2023-05-13T05:59:24;101216.22;;;21.21;34.43
34658;BME280;20865;43.312;27.152;2023-05-13T06:01:51;101215.44;;;21.42;34.38
34658;BME280;20865;43.312;27.152;2023-05-13T06:04:18;101218.17;;;21.56;33.49
34658;BME280;20865;43.312;27.152;2023-05-13T06:06:45;101212.45;;;21.68;33.39
34658;BME280;20865;43.312;27.152;2023-05-13T06:09:11;101218.99;;;21.79;33.29
34658;BME280;20865;43.312;27.152;2023-05-13T06:11:38;101214.72;;;21.97;33.21
34658;BME280;20865;43.312;27.152;2023-05-13T06:14:05;101214.98;;;22.06;33.11
34658;BME280;20865;43.312;27.152;2023-05-13T06:16:32;101214.62;;;22.27;32.41
34658;BME280;20865;43.312;27.152;2023-05-13T06:18:59;101219.28;;;22.39;31.90
34658;BME280;20865;43.312;27.152;2023-05-13T06:21:25;101214.98;;;22.49;32.59
34658;BME280;20865;43.312;27.152;2023-05-13T06:23:52;101216.51;;;22.61;31.10
34658;BME280;20865;43.312;27.152;2023-05-13T06:26:19;101222.98;;;22.72;30.71
34658;BME280;20865;43.312;27.152;2023-05-13T06:28:46;101219.34;;;22.86;30.69
34658;BME280;20865;43.312;27.152;2023-05-13T06:31:13;101223.52;;;22.99;30.05
34658;BME280;20865;43.312;27.152;2023-05-13T06:33:40;101235.30;;;23.19;31.10
34658;BME280;20865;43.312;27.152;2023-05-13T06:36:07;101234.23;;;23.35;30.12
34658;BME280;20865;43.312;27.152;2023-05-13T06:38:34;101235.34;;;23.45;29.64
34658;BME280;20865;43.312;27.152;2023-05-13T06:41:01;101231.66;;;23.59;30.63
34658;BME280;20865;43.312;27.152;2023-05-13T06:43:28;101224.48;;;23.70;29.87
34658;BME280;20865;43.312;27.152;2023-05-13T06:45:54;101223.02;;;23.85;29.80
34658;BME280;20865;43.312;27.152;2023-05-13T06:48:21;101222.02;;;23.98;28.56
34658;BME280;20865;43.312;27.152;2023-05-13T06:50:48;101219.36;;;24.04;28.14
34658;BME280;20865;43.312;27.152;2023-05-13T06:53:15;101216.66;;;24.22;27.81
34658;BME280;20865;43.312;27.152;2023-05-13T06:55:42;101221.67;;;24.29;27.36
34658;BME280;20865;43.312;27.152;2023-05-13T06:58:09;101216.59;;;24.42;25.83
34658;BME280;20865;43.312;27.152;2023-05-13T07:00:36;101210.41;;;24.46;26.11
34658;BME280;20865;43.312;27.152;2023-05-13T07:03:03;101205.52;;;24.57;24.93
34658;BME280;20865;43.312;27.152;2023-05-13T07:05:34;101200.09;;;24.62;25.47
34658;BME280;20865;43.312;27.152;2023-05-13T07:08:01;101195.47;;;23.69;24.28
34658;BME280;20865;43.312;27.152;2023-05-13T07:10:30;101197.16;;;23.77;24.71
34658;BME280;20865;43.312;27.152;2023-05-13T07:12:56;101194.65;;;24.00;24.79
34658;BME280;20865;43.312;27.152;2023-05-13T07:15:23;101207.86;;;24.06;23.83
34658;BME280;20865;43.312;27.152;2023-05-13T07:17:50;101193.53;;;23.71;23.20
34658;BME280;20865;43.312;27.152;2023-05-13T07:20:17;101195.52;;;23.88;23.75
34658;BME280;20865;43.312;27.152;2023-05-13T07:22:45;101196.51;;;23.87;22.94
34658;BME280;20865;43.312;27.152;2023-05-13T07:25:12;101190.83;;;23.90;22.39
34658;BME280;20865;43.312;27.152;2023-05-13T07:27:39;101201.47;;;24.31;22.73
34658;BME280;20865;43.312;27.152;2023-05-13T07:30:06;101193.36;;;25.33;21.73
34658;BME280;20865;43.312;27.152;2023-05-13T07:32:33;101186.66;;;25.37;21.55
34658;BME280;20865;43.312;27.152;2023-05-13T07:35:02;101197.91;;;25.56;22.15
34658;BME280;20865;43.312;27.152;2023-05-13T07:37:29;101197.92;;;25.79;21.73
34658;BME280;20865;43.312;27.152;2023-05-13T07:39:56;101193.95;;;25.77;21.00
34658;BME280;20865;43.312;27.152;2023-05-13T07:42:23;101187.50;;;26.01;22.96
34658;BME280;20865;43.312;27.152;2023-05-13T07:44:51;101187.27;;;26.09;22.23
34658;BME280;20865;43.312;27.152;2023-05-13T07:47:18;101194.09;;;25.87;21.42
34658;BME280;20865;43.312;27.152;2023-05-13T07:49:45;101187.84;;;25.68;21.60
34658;BME280;20865;43.312;27.152;2023-05-13T07:52:12;101185.86;;;25.70;21.67
34658;BME280;20865;43.312;27.152;2023-05-13T07:54:39;101183.08;;;25.59;22.16
34658;BME280;20865;43.312;27.152;2023-05-13T07:57:05;101186.26;;;25.30;21.57
34658;BME280;20865;43.312;27.152;2023-05-13T07:59:32;101188.44;;;25.49;22.49
34658;BME280;20865;43.312;27.152;2023-05-13T08:01:59;101189.56;;;25.69;22.09
34658;BME280;20865;43.312;27.152;2023-05-13T08:04:26;101188.98;;;25.77;22.20
34658;BME280;20865;43.312;27.152;2023-05-13T08:06:53;101185.36;;;25.71;22.12
34658;BME280;20865;43.312;27.152;2023-05-13T08:09:20;101177.95;;;25.95;21.86
34658;BME280;20865;43.312;27.152;2023-05-13T08:11:47;101180.16;;;26.24;21.07
34658;BME280;20865;43.312;27.152;2023-05-13T08:14:14;101186.52;;;26.30;21.21
34658;BME280;20865;43.312;27.152;2023-05-13T08:16:41;101175.92;;;26.31;22.27
34658;BME280;20865;43.312;27.152;2023-05-13T08:19:09;101157.00;;;26.33;21.60
34658;BME280;20865;43.312;27.152;2023-05-13T08:21:37;101165.70;;;26.50;21.23
34658;BME280;20865;43.312;27.152;2023-05-13T08:24:04;101173.56;;;26.21;19.94
34658;BME280;20865;43.312;27.152;2023-05-13T08:26:31;101167.67;;;26.42;20.57
34658;BME280;20865;43.312;27.152;2023-05-13T08:28:58;101166.63;;;26.05;20.51
34658;BME280;20865;43.312;27.152;2023-05-13T08:31:25;101168.70;;;26.24;21.18
34658;BME280;20865;43.312;27.152;2023-05-13T08:33:53;101170.19;;;26.28;21.36
34658;BME280;20865;43.312;27.152;2023-05-13T08:36:20;101170.19;;;26.34;21.54
34658;BME280;20865;43.312;27.152;2023-05-13T08:38:47;101168.56;;;26.31;21.31
34658;BME280;20865;43.312;27.152;2023-05-13T08:41:14;101176.69;;;26.16;20.55
34658;BME280;20865;43.312;27.152;2023-05-13T08:43:44;101169.30;;;26.39;22.13
34658;BME280;20865;43.312;27.152;2023-05-13T08:46:12;101172.18;;;26.49;21.03
34658;BME280;20865;43.312;27.152;2023-05-13T08:48:41;101177.41;;;26.57;20.92
34658;BME280;20865;43.312;27.152;2023-05-13T08:51:08;101173.98;;;26.71;20.54
34658;BME280;20865;43.312;27.152;2023-05-13T08:53:36;101177.22;;;26.70;21.17
34658;BME280;20865;43.312;27.152;2023-05-13T08:56:04;101164.02;;;26.75;20.66
34658;BME280;20865;43.312;27.152;2023-05-13T08:58:31;101161.64;;;26.71;20.69
34658;BME280;20865;43.312;27.152;2023-05-13T09:00:58;101167.98;;;26.77;20.35
34658;BME280;20865;43.312;27.152;2023-05-13T09:03:26;101167.23;;;26.80;21.17
34658;BME280;20865;43.312;27.152;2023-05-13T09:05:53;101168.03;;;26.71;21.27
34658;BME280;20865;43.312;27.152;2023-05-13T09:08:21;101164.38;;;26.76;19.77
34658;BME280;20865;43.312;27.152;2023-05-13T09:10:50;101172.44;;;26.89;20.42
34658;BME280;20865;43.312;27.152;2023-05-13T09:13:17;101166.28;;;27.02;20.57
34658;BME280;20865;43.312;27.152;2023-05-13T09:15:44;101168.02;;;27.03;20.86
34658;BME280;20865;43.312;27.152;2023-05-13T09:18:11;101165.78;;;27.03;19.71
34658;BME280;20865;43.312;27.152;2023-05-13T09:20:40;101165.35;;;26.81;19.50
34658;BME280;20865;43.312;27.152;2023-05-13T09:23:08;101167.58;;;26.87;19.87
34658;BME280;20865;43.312;27.152;2023-05-13T09:25:38;101165.69;;;26.55;19.55
34658;BME280;20865;43.312;27.152;2023-05-13T09:28:06;101163.06;;;26.65;19.44
34658;BME280;20865;43.312;27.152;2023-05-13T09:30:33;101168.39;;;26.72;20.29
34658;BME280;20865;43.312;27.152;2023-05-13T09:35:33;101163.20;;;26.90;19.84
34658;BME280;20865;43.312;27.152;2023-05-13T09:38:00;101157.91;;;27.04;20.08
34658;BME280;20865;43.312;27.152;2023-05-13T09:40:27;101151.84;;;26.63;19.74
34658;BME280;20865;43.312;27.152;2023-05-13T09:42:55;101146.52;;;26.61;19.32
34658;BME280;20865;43.312;27.152;2023-05-13T09:45:25;101143.57;;;26.79;19.10
34658;BME280;20865;43.312;27.152;2023-05-13T09:47:54;101150.22;;;26.71;19.94
34658;BME280;20865;43.312;27.152;2023-05-13T09:50:21;101145.15;;;26.44;18.96
34658;BME280;20865;43.312;27.152;2023-05-13T09:52:48;101138.05;;;26.58;19.44
34658;BME280;20865;43.312;27.152;2023-05-13T09:55:15;101139.16;;;26.56;19.68
34658;BME280;20865;43.312;27.152;2023-05-13T09:57:44;101144.02;;;26.58;19.21
34658;BME280;20865;43.312;27.152;2023-05-13T10:00:13;101141.70;;;26.74;19.16
34658;BME280;20865;43.312;27.152;2023-05-13T10:02:40;101135.17;;;27.19;20.14
34658;BME280;20865;43.312;27.152;2023-05-13T10:05:07;101134.19;;;27.41;20.07
34658;BME280;20865;43.312;27.152;2023-05-13T10:07:35;101140.59;;;27.30;18.89
34658;BME280;20865;43.312;27.152;2023-05-13T10:10:03;101137.58;;;27.33;18.84
34658;BME280;20865;43.312;27.152;2023-05-13T10:12:31;101128.47;;;27.53;19.25
34658;BME280;20865;43.312;27.152;2023-05-13T10:14:59;101120.80;;;28.09;20.50
34658;BME280;20865;43.312;27.152;2023-05-13T10:17:27;101123.34;;;28.16;19.95
34658;BME280;20865;43.312;27.152;2023-05-13T10:19:54;101105.57;;;28.20;19.19
34658;BME280;20865;43.312;27.152;2023-05-13T10:22:26;101109.48;;;28.27;17.99
34658;BME280;20865;43.312;27.152;2023-05-13T10:24:57;101117.09;;;28.29;17.86
34658;BME280;20865;43.312;27.152;2023-05-13T10:27:30;101112.28;;;28.12;18.35
34658;BME280;20865;43.312;27.152;2023-05-13T10:29:54;101109.52;;;28.37;18.80
34658;BME280;20865;43.312;27.152;2023-05-13T10:32:25;101107.41;;;28.50;18.41
34658;BME280;20865;43.312;27.152;2023-05-13T10:34:53;101116.25;;;28.63;17.89
34658;BME280;20865;43.312;27.152;2023-05-13T10:37:45;101106.72;;;27.92;16.74
34658;BME280;20865;43.312;27.152;2023-05-13T10:45:05;101093.02;;;28.42;17.77
34658;BME280;20865;43.312;27.152;2023-05-13T10:47:33;101106.38;;;28.51;17.41
34658;BME280;20865;43.312;27.152;2023-05-13T10:50:04;101099.17;;;28.60;18.20
34658;BME280;20865;43.312;27.152;2023-05-13T10:52:41;101105.10;;;28.75;18.58
34658;BME280;20865;43.312;27.152;2023-05-13T10:55:14;101099.09;;;28.85;16.59
34658;BME280;20865;43.312;27.152;2023-05-13T10:57:37;101091.65;;;28.91;17.26
34658;BME280;20865;43.312;27.152;2023-05-13T11:00:16;101094.48;;;29.05;17.45
34658;BME280;20865;43.312;27.152;2023-05-13T11:02:44;101093.52;;;29.10;16.96
34658;BME280;20865;43.312;27.152;2023-05-13T11:05:18;101100.63;;;29.03;16.83
34658;BME280;20865;43.312;27.152;2023-05-13T11:07:39;101103.67;;;29.00;17.10
34658;BME280;20865;43.312;27.152;2023-05-13T11:10:25;101096.41;;;28.69;17.04
34658;BME280;20865;43.312;27.152;2023-05-13T11:15:44;101097.93;;;27.98;17.37
34658;BME280;20865;43.312;27.152;2023-05-13T11:18:11;101109.53;;;28.12;17.54
34658;BME280;20865;43.312;27.152;2023-05-13T11:20:38;101113.41;;;27.84;17.73
34658;BME280;20865;43.312;27.152;2023-05-13T11:23:05;101115.33;;;27.78;17.76
34658;BME280;20865;43.312;27.152;2023-05-13T11:25:33;101111.47;;;27.60;17.57
34658;BME280;20865;43.312;27.152;2023-05-13T11:28:00;101112.82;;;27.81;19.06
34658;BME280;20865;43.312;27.152;2023-05-13T11:30:29;101116.66;;;27.47;17.70
34658;BME280;20865;43.312;27.152;2023-05-13T11:32:56;101113.97;;;27.42;18.52
34658;BME280;20865;43.312;27.152;2023-05-13T11:35:27;101106.40;;;27.55;18.20
34658;BME280;20865;43.312;27.152;2023-05-13T11:37:54;101116.03;;;27.49;17.60
34658;BME280;20865;43.312;27.152;2023-05-13T11:40:27;101108.99;;;27.57;19.10
34658;BME280;20865;43.312;27.152;2023-05-13T11:42:50;101106.23;;;27.77;19.07
34658;BME280;20865;43.312;27.152;2023-05-13T11:45:18;101109.48;;;27.77;17.95
34658;BME280;20865;43.312;27.152;2023-05-13T11:47:45;101117.58;;;27.58;17.97
34658;BME280;20865;43.312;27.152;2023-05-13T11:50:18;101118.48;;;28.04;17.64
34658;BME280;20865;43.312;27.152;2023-05-13T11:52:49;101114.67;;;28.11;17.07
34658;BME280;20865;43.312;27.152;2023-05-13T11:55:17;101112.91;;;28.10;18.07
34658;BME280;20865;43.312;27.152;2023-05-13T11:57:42;101116.71;;;27.93;17.02
34658;BME280;20865;43.312;27.152;2023-05-13T12:00:10;101110.95;;;27.96;17.61
34658;BME280;20865;43.312;27.152;2023-05-13T12:02:38;101112.13;;;27.88;17.02
34658;BME280;20865;43.312;27.152;2023-05-13T12:05:06;101111.62;;;28.14;18.71
34658;BME280;20865;43.312;27.152;2023-05-13T12:07:33;101107.99;;;28.29;17.91
34658;BME280;20865;43.312;27.152;2023-05-13T12:10:02;101106.52;;;28.40;17.52
34658;BME280;20865;43.312;27.152;2023-05-13T12:12:31;101111.58;;;28.44;18.06
34658;BME280;20865;43.312;27.152;2023-05-13T12:15:00;101092.50;;;28.18;16.87
34658;BME280;20865;43.312;27.152;2023-05-13T12:17:29;101097.33;;;28.20;17.35
34658;BME280;20865;43.312;27.152;2023-05-13T12:27:57;101097.22;;;28.06;16.99
34658;BME280;20865;43.312;27.152;2023-05-13T12:30:24;101109.18;;;28.20;18.49
34658;BME280;20865;43.312;27.152;2023-05-13T12:32:50;101097.77;;;28.15;17.06
34658;BME280;20865;43.312;27.152;2023-05-13T12:35:17;101098.42;;;28.23;16.58
34658;BME280;20865;43.312;27.152;2023-05-13T12:37:48;101098.50;;;28.27;16.54
34658;BME280;20865;43.312;27.152;2023-05-13T12:40:13;101094.20;;;28.09;17.45
34658;BME280;20865;43.312;27.152;2023-05-13T12:42:43;101090.71;;;27.97;17.37
34658;BME280;20865;43.312;27.152;2023-05-13T12:45:10;101090.16;;;28.04;17.83
34658;BME280;20865;43.312;27.152;2023-05-13T12:47:47;101086.90;;;28.14;18.10
34658;BME280;20865;43.312;27.152;2023-05-13T12:50:14;101079.53;;;28.05;17.42
34658;BME280;20865;43.312;27.152;2023-05-13T12:52:41;101075.59;;;28.22;18.33
34658;BME280;20865;43.312;27.152;2023-05-13T12:55:08;101076.98;;;28.32;17.62
34658;BME280;20865;43.312;27.152;2023-05-13T12:57:38;101075.33;;;28.10;16.90
34658;BME280;20865;43.312;27.152;2023-05-13T13:00:06;101085.05;;;28.24;17.32
34658;BME280;20865;43.312;27.152;2023-05-13T13:02:35;101082.17;;;28.25;17.04
34658;BME280;20865;43.312;27.152;2023-05-13T13:05:02;101076.31;;;28.34;18.53